• Join FlightAware (Why Join?)
  • Login
  • US Flag 
Rudolph Flight #1: Arrived! 
09:04PM EST


 

Airport Tracker/Info


-or-


 

Live Flight TrackerFlight Track Log ✈ GLA47E ✈ 24-Apr-2013 ✈ KEAR - KDEN

Flight Track Log - Related Links

Times and Time Zones

All times are in EDT time to prevent confusion due to time zone crossing. See the GLA47E flight status page for this flight to view local times or setup timezone preferences in your user account.

Time Position Orientation Groundspeed Altitude Reporting Facility
EDT Latitude Longitude Course Direction KTS MPH feet Rate Location/Type
02:03PM 40.7200 -99.1092 290° West 173 199 6,700  Level Minneapolis Center
02:04PM 40.7375 -99.1733 290° West 177 204 8,200 2,040 Climbing Minneapolis Center
02:05PM 40.7528 -99.2408 287° West 185 213 11,000 2,460 Climbing Minneapolis Center
02:05PM 40.7542 -99.2514 280° West 182 209 11,500 2,580 Climbing Denver Center
02:06PM 40.7692 -99.3186 286° West 163 188 14,500 2,160 Climbing Denver Center
02:07PM 40.7792 -99.3800 282° West 168 193 16,100 1,500 Climbing Denver Center
02:08PM 40.7808 -99.4533 272° West 192 221 17,600 960 Climbing Denver Center
02:09PM 40.7906 -99.5308 279° West 208 239 18,100 600 Climbing Denver Center
02:10PM 40.8042 -99.6114 283° West 221 254 18,900 660 Climbing Denver Center
02:11PM 40.8036 -99.6956 270° West 227 261 19,500 480 Climbing Denver Center
02:12PM 40.7978 -99.7956 266° West 229 264 20,000 240 Climbing Denver Center
02:13PM 40.7953 -99.8822 268° West 232 267 20,000  Level Denver Center
02:14PM 40.7947 -99.9675 270° West 239 275 20,000  Level Denver Center
02:16PM 40.7958 -100.0639 271° West 237 273 20,000  Level Denver Center
02:17PM 40.7958 -100.1472 270° West 237 273 20,000  Level Denver Center
02:18PM 40.7944 -100.2414 269° West 232 267 20,000  Level Denver Center
02:19PM 40.7956 -100.3242 271° West 234 269 20,100  Climbing Denver Center
02:20PM 40.7958 -100.4194 270° West 234 269 20,000 -60 Descending Denver Center
02:21PM 40.7950 -100.5144 269° West 233 268 20,000  Level Denver Center
02:22PM 40.7950 -100.6103 270° West 233 268 20,000  Level Denver Center
02:23PM 40.7942 -100.6936 269° West 234 269 20,000  Level Denver Center
02:24PM 40.7958 -100.7792 272° West 235 270 20,000  Level Denver Center
02:25PM 40.7978 -100.8750 272° West 231 266 20,000  Level Denver Center
02:26PM 40.7983 -100.9575 271° West 234 269 20,000  Level Denver Center
02:27PM 40.7994 -101.0542 271° West 236 272 20,100  Climbing Denver Center
02:28PM 40.7975 -101.1372 268° West 237 273 20,000 -60 Descending Denver Center
02:29PM 40.7950 -101.2328 268° West 235 270 20,000  Level Denver Center
02:30PM 40.7944 -101.3161 270° West 236 272 20,100  Climbing Denver Center
02:31PM 40.7958 -101.3989 271° West 237 273 20,100 -60 Level Denver Center
02:32PM 40.7964 -101.4958 270° West 237 273 20,000  Descending Denver Center
02:33PM 40.7989 -101.5783 272° West 236 272 20,100  Climbing Denver Center
02:34PM 40.8019 -101.6747 272° West 235 270 20,100 -60 Level Denver Center
02:35PM 40.8056 -101.7581 273° West 237 273 20,000 -60 Descending Denver Center
02:36PM 40.8072 -101.8544 271° West 237 273 20,000  Level Denver Center
02:37PM 40.8106 -101.9372 273° West 236 272 20,000  Level Denver Center
02:38PM 40.8131 -102.0356 272° West 240 276 20,000 -60 Level Denver Center
02:39PM 40.8086 -102.1175 266° West 235 270 19,900  Descending Denver Center
02:41PM 40.8094 -102.2117 271° West 229 264 20,000 60 Climbing Denver Center
02:42PM 40.8061 -102.2967 267° West 240 276 20,100  Climbing Denver Center
02:43PM 40.8006 -102.3781 265° West 235 270 20,000 -60 Descending Denver Center
02:44PM 40.8008 -102.4742 270° West 235 270 20,000  Level Denver Center
02:45PM 40.7881 -102.5553 258° West 242 278 20,100  Climbing Denver Center
02:46PM 40.7636 -102.6481 251° West 240 276 20,000 -60 Descending Denver Center
02:47PM 40.7417 -102.7286 250° West 243 280 20,000  Level Denver Center
02:48PM 40.7147 -102.8222 249° West 245 282 20,000  Level Denver Center
02:49PM 40.6944 -102.9019 251° West 241 277 20,000  Level Denver Center
02:50PM 40.6742 -102.9861 252° West 241 277 20,000  Level Denver Center
02:51PM 40.6536 -103.0700 252° West 239 275 20,100 -300 Climbing Denver Center
02:52PM 40.6303 -103.1672 252° West 237 273 19,500 -900 Descending Denver Center
02:53PM 40.6044 -103.2503 248° West 241 277 18,300 -1,020 Descending Denver Center
02:54PM 40.5817 -103.3339 250° West 240 276 17,500 -1,260 Descending Denver Center
02:55PM 40.5644 -103.4122 254° West 224 258 15,800 -1,440 Descending Denver Center
02:56PM 40.5419 -103.4881 249° West 221 254 14,600 -1,260 Descending Denver Center
02:57PM 40.5164 -103.5567 244° Southwest 209 241 13,300 -780 Descending Denver Center
02:58PM 40.4906 -103.6236 243° Southwest 205 236 13,000 -180 Descending Denver Center
02:59PM 40.4575 -103.6914 237° Southwest 214 246 13,000  Level Denver Center
03:00PM 40.4167 -103.7744 237° Southwest 240 276 13,100  Climbing Denver Center
03:01PM 40.3864 -103.8525 243° Southwest 223 257 13,000 -60 Descending Denver Center
03:02PM 40.3561 -103.9250 241° Southwest 226 260 13,000  Level Denver Center
03:03PM 40.3175 -103.9903 232° Southwest 228 262 13,000  Level Denver Center
03:04PM 40.2706 -104.0567 227° Southwest 231 266 13,100  Climbing Denver Center
03:05PM 40.2222 -104.1108 221° Southwest 231 266 13,100 -60 Level Denver Center
03:06PM 40.1486 -104.1344 194° South 250 288 13,000 -60 Descending Denver Center
03:07PM 40.0872 -104.1569 196° South 229 264 13,000  Level Denver Center
03:08PM 40.0311 -104.1842 200° South 215 247 13,000 -780 Level Denver Center
03:09PM 39.9819 -104.2386 220° Southwest 215 247 11,500 -1,200 Descending Denver Center
03:10PM 39.9378 -104.2881 221° Southwest 212 244 10,600 -960 Descending Denver Center
03:11PM 39.9017 -104.3489 232° Southwest 199 229 9,600 -1,020 Descending Denver Center
03:12PM 39.8833 -104.3833 235° Southwest 206 237 9,000 -1,140 Descending Denver TRACON
03:13PM 39.8833 -104.4500 270° West 208 239 7,800 -1,080 Descending Denver TRACON
03:15PM 39.8833 -104.5833 270° West 157 181 5,800 -1,020 Descending Denver TRACON
03:18PM 39.8500 -104.6667 229° Southwest  Level FlightAware Approximate
03:25PM 39.8617 -104.6732 229° Southwest  Level Estimated
03:26PM 39.8617 -104.6732 229° Southwest  Level Estimated